sensor_id;sensor_type;location;lat;lon;timestamp;P1;durP1;ratioP1;P2;durP2;ratioP2
48241;SDS011;34041;51.812;4.622;2023-01-08T00:00:11;7.20;;;2.40;;
48241;SDS011;34041;51.812;4.622;2023-01-08T00:03:12;3.20;;;2.03;;
48241;SDS011;34041;51.812;4.622;2023-01-08T00:06:13;3.58;;;1.70;;
48241;SDS011;34041;51.812;4.622;2023-01-08T00:09:14;4.68;;;2.42;;
48241;SDS011;34041;51.812;4.622;2023-01-08T00:12:14;4.18;;;2.03;;
48241;SDS011;34041;51.812;4.622;2023-01-08T00:15:14;4.80;;;2.33;;
48241;SDS011;34041;51.812;4.622;2023-01-08T00:18:14;4.43;;;2.10;;
48241;SDS011;34041;51.812;4.622;2023-01-08T00:21:15;5.60;;;2.23;;
48241;SDS011;34041;51.812;4.622;2023-01-08T00:24:15;3.90;;;2.03;;
48241;SDS011;34041;51.812;4.622;2023-01-08T00:27:15;3.17;;;1.90;;
48241;SDS011;34041;51.812;4.622;2023-01-08T00:30:15;3.10;;;1.57;;
48241;SDS011;34041;51.812;4.622;2023-01-08T00:33:16;3.90;;;2.20;;
48241;SDS011;34041;51.812;4.622;2023-01-08T00:36:16;3.60;;;1.80;;
48241;SDS011;34041;51.812;4.622;2023-01-08T00:39:19;4.38;;;2.10;;
48241;SDS011;34041;51.812;4.622;2023-01-08T00:42:19;3.93;;;1.53;;
48241;SDS011;34041;51.812;4.622;2023-01-08T00:45:19;2.80;;;1.92;;
48241;SDS011;34041;51.812;4.622;2023-01-08T00:48:19;3.70;;;1.50;;
48241;SDS011;34041;51.812;4.622;2023-01-08T00:51:21;4.80;;;1.60;;
48241;SDS011;34041;51.812;4.622;2023-01-08T00:54:21;2.57;;;1.20;;
48241;SDS011;34041;51.812;4.622;2023-01-08T00:57:21;3.27;;;1.47;;
48241;SDS011;34041;51.812;4.622;2023-01-08T01:00:22;4.10;;;1.67;;
48241;SDS011;34041;51.812;4.622;2023-01-08T01:03:22;2.92;;;1.70;;
48241;SDS011;34041;51.812;4.622;2023-01-08T01:06:23;4.05;;;1.52;;
48241;SDS011;34041;51.812;4.622;2023-01-08T01:09:23;3.58;;;1.45;;
48241;SDS011;34041;51.812;4.622;2023-01-08T01:12:23;3.35;;;1.92;;
48241;SDS011;34041;51.812;4.622;2023-01-08T01:15:24;3.55;;;1.63;;
48241;SDS011;34041;51.812;4.622;2023-01-08T01:18:24;2.47;;;1.05;;
48241;SDS011;34041;51.812;4.622;2023-01-08T01:21:26;4.28;;;1.30;;
48241;SDS011;34041;51.812;4.622;2023-01-08T01:24:26;2.33;;;1.20;;
48241;SDS011;34041;51.812;4.622;2023-01-08T01:27:26;3.23;;;1.40;;
48241;SDS011;34041;51.812;4.622;2023-01-08T01:30:27;3.53;;;1.87;;
48241;SDS011;34041;51.812;4.622;2023-01-08T01:33:27;2.97;;;1.37;;
48241;SDS011;34041;51.812;4.622;2023-01-08T01:36:27;2.30;;;1.08;;
48241;SDS011;34041;51.812;4.622;2023-01-08T01:39:28;2.88;;;1.27;;
48241;SDS011;34041;51.812;4.622;2023-01-08T01:42:28;3.72;;;1.60;;
48241;SDS011;34041;51.812;4.622;2023-01-08T01:45:40;4.22;;;1.17;;
48241;SDS011;34041;51.812;4.622;2023-01-08T01:48:41;3.40;;;1.58;;
48241;SDS011;34041;51.812;4.622;2023-01-08T01:51:42;3.88;;;1.10;;
48241;SDS011;34041;51.812;4.622;2023-01-08T01:54:43;2.35;;;1.10;;
48241;SDS011;34041;51.812;4.622;2023-01-08T01:57:45;3.17;;;1.20;;
48241;SDS011;34041;51.812;4.622;2023-01-08T02:00:48;1.58;;;0.90;;
48241;SDS011;34041;51.812;4.622;2023-01-08T02:03:48;3.63;;;1.95;;
48241;SDS011;34041;51.812;4.622;2023-01-08T02:06:57;2.70;;;0.90;;
48241;SDS011;34041;51.812;4.622;2023-01-08T02:13:16;1.92;;;1.10;;
48241;SDS011;34041;51.812;4.622;2023-01-08T02:16:28;2.08;;;1.05;;
48241;SDS011;34041;51.812;4.622;2023-01-08T02:19:43;2.72;;;0.95;;
48241;SDS011;34041;51.812;4.622;2023-01-08T02:29:07;2.42;;;1.17;;
48241;SDS011;34041;51.812;4.622;2023-01-08T02:32:08;4.53;;;1.05;;
48241;SDS011;34041;51.812;4.622;2023-01-08T02:35:08;2.20;;;1.15;;
48241;SDS011;34041;51.812;4.622;2023-01-08T02:38:10;4.60;;;1.42;;
48241;SDS011;34041;51.812;4.622;2023-01-08T02:41:12;3.08;;;1.25;;
48241;SDS011;34041;51.812;4.622;2023-01-08T02:44:16;3.10;;;1.27;;
48241;SDS011;34041;51.812;4.622;2023-01-08T02:47:22;3.60;;;1.63;;
48241;SDS011;34041;51.812;4.622;2023-01-08T02:50:25;1.20;;;0.90;;
48241;SDS011;34041;51.812;4.622;2023-01-08T02:53:30;3.42;;;1.00;;
48241;SDS011;34041;51.812;4.622;2023-01-08T02:56:33;6.30;;;1.85;;
48241;SDS011;34041;51.812;4.622;2023-01-08T02:59:34;3.35;;;1.13;;
48241;SDS011;34041;51.812;4.622;2023-01-08T03:02:36;2.20;;;1.20;;
48241;SDS011;34041;51.812;4.622;2023-01-08T03:05:38;3.90;;;1.38;;
48241;SDS011;34041;51.812;4.622;2023-01-08T03:08:40;1.98;;;1.02;;
48241;SDS011;34041;51.812;4.622;2023-01-08T03:11:56;2.00;;;1.02;;
48241;SDS011;34041;51.812;4.622;2023-01-08T03:15:02;1.77;;;1.00;;
48241;SDS011;34041;51.812;4.622;2023-01-08T03:18:06;3.88;;;1.50;;
48241;SDS011;34041;51.812;4.622;2023-01-08T03:21:08;2.80;;;1.40;;
48241;SDS011;34041;51.812;4.622;2023-01-08T03:24:10;3.83;;;1.20;;
48241;SDS011;34041;51.812;4.622;2023-01-08T03:27:12;3.55;;;1.67;;
48241;SDS011;34041;51.812;4.622;2023-01-08T03:30:14;2.72;;;1.40;;
48241;SDS011;34041;51.812;4.622;2023-01-08T03:33:15;2.83;;;1.20;;
48241;SDS011;34041;51.812;4.622;2023-01-08T03:36:17;2.58;;;1.20;;
48241;SDS011;34041;51.812;4.622;2023-01-08T03:39:20;2.28;;;1.10;;
48241;SDS011;34041;51.812;4.622;2023-01-08T03:42:21;3.08;;;1.50;;
48241;SDS011;34041;51.812;4.622;2023-01-08T03:45:22;4.38;;;1.52;;
48241;SDS011;34041;51.812;4.622;2023-01-08T03:48:22;2.42;;;1.20;;
48241;SDS011;34041;51.812;4.622;2023-01-08T03:51:24;2.28;;;1.20;;
48241;SDS011;34041;51.812;4.622;2023-01-08T03:54:26;5.65;;;1.42;;
48241;SDS011;34041;51.812;4.622;2023-01-08T03:57:28;4.30;;;1.40;;
48241;SDS011;34041;51.812;4.622;2023-01-08T04:00:28;2.53;;;1.20;;
48241;SDS011;34041;51.812;4.622;2023-01-08T04:03:28;3.55;;;1.20;;
48241;SDS011;34041;51.812;4.622;2023-01-08T04:06:29;3.40;;;1.53;;
48241;SDS011;34041;51.812;4.622;2023-01-08T04:09:29;3.03;;;1.30;;
48241;SDS011;34041;51.812;4.622;2023-01-08T04:12:29;2.53;;;1.58;;
48241;SDS011;34041;51.812;4.622;2023-01-08T04:15:29;3.30;;;1.15;;
48241;SDS011;34041;51.812;4.622;2023-01-08T04:18:30;3.20;;;1.40;;
48241;SDS011;34041;51.812;4.622;2023-01-08T04:21:30;3.90;;;1.60;;
48241;SDS011;34041;51.812;4.622;2023-01-08T04:24:31;3.20;;;1.42;;
48241;SDS011;34041;51.812;4.622;2023-01-08T04:27:31;4.50;;;1.77;;
48241;SDS011;34041;51.812;4.622;2023-01-08T04:30:31;3.30;;;1.30;;
48241;SDS011;34041;51.812;4.622;2023-01-08T04:33:31;4.33;;;1.77;;
48241;SDS011;34041;51.812;4.622;2023-01-08T04:36:32;3.78;;;1.13;;
48241;SDS011;34041;51.812;4.622;2023-01-08T04:39:33;2.95;;;1.40;;
48241;SDS011;34041;51.812;4.622;2023-01-08T04:42:33;4.17;;;1.67;;
48241;SDS011;34041;51.812;4.622;2023-01-08T04:45:33;9.50;;;2.13;;
48241;SDS011;34041;51.812;4.622;2023-01-08T04:48:33;3.07;;;1.50;;
48241;SDS011;34041;51.812;4.622;2023-01-08T04:51:34;2.15;;;1.00;;
48241;SDS011;34041;51.812;4.622;2023-01-08T04:54:34;3.37;;;1.40;;
48241;SDS011;34041;51.812;4.622;2023-01-08T04:57:34;3.23;;;1.50;;
48241;SDS011;34041;51.812;4.622;2023-01-08T05:00:34;3.53;;;1.47;;
48241;SDS011;34041;51.812;4.622;2023-01-08T05:03:35;2.97;;;1.47;;
48241;SDS011;34041;51.812;4.622;2023-01-08T05:06:35;3.17;;;1.70;;
48241;SDS011;34041;51.812;4.622;2023-01-08T05:09:35;3.07;;;1.07;;
48241;SDS011;34041;51.812;4.622;2023-01-08T05:12:35;2.67;;;1.37;;
48241;SDS011;34041;51.812;4.622;2023-01-08T05:15:35;2.23;;;1.33;;
48241;SDS011;34041;51.812;4.622;2023-01-08T05:18:36;3.67;;;1.40;;
48241;SDS011;34041;51.812;4.622;2023-01-08T05:21:36;4.37;;;1.57;;
48241;SDS011;34041;51.812;4.622;2023-01-08T05:24:36;3.30;;;1.30;;
48241;SDS011;34041;51.812;4.622;2023-01-08T05:27:36;2.80;;;1.33;;
48241;SDS011;34041;51.812;4.622;2023-01-08T05:30:36;3.00;;;1.43;;
48241;SDS011;34041;51.812;4.622;2023-01-08T05:33:37;1.87;;;0.93;;
48241;SDS011;34041;51.812;4.622;2023-01-08T05:36:37;2.72;;;1.27;;
48241;SDS011;34041;51.812;4.622;2023-01-08T05:39:37;2.57;;;1.53;;
48241;SDS011;34041;51.812;4.622;2023-01-08T05:42:38;3.80;;;1.30;;
48241;SDS011;34041;51.812;4.622;2023-01-08T05:45:38;3.75;;;1.27;;
48241;SDS011;34041;51.812;4.622;2023-01-08T05:48:38;3.20;;;1.33;;
48241;SDS011;34041;51.812;4.622;2023-01-08T05:51:38;4.10;;;1.17;;
48241;SDS011;34041;51.812;4.622;2023-01-08T05:54:39;3.70;;;1.43;;
48241;SDS011;34041;51.812;4.622;2023-01-08T05:57:39;3.03;;;1.43;;
48241;SDS011;34041;51.812;4.622;2023-01-08T06:00:39;2.88;;;1.30;;
48241;SDS011;34041;51.812;4.622;2023-01-08T06:03:39;2.20;;;1.30;;
48241;SDS011;34041;51.812;4.622;2023-01-08T06:06:40;2.87;;;1.27;;
48241;SDS011;34041;51.812;4.622;2023-01-08T06:09:40;4.57;;;1.27;;
48241;SDS011;34041;51.812;4.622;2023-01-08T06:12:40;3.67;;;1.30;;
48241;SDS011;34041;51.812;4.622;2023-01-08T06:15:40;3.28;;;1.45;;
48241;SDS011;34041;51.812;4.622;2023-01-08T06:18:40;4.27;;;1.27;;
48241;SDS011;34041;51.812;4.622;2023-01-08T06:21:41;3.80;;;1.37;;
48241;SDS011;34041;51.812;4.622;2023-01-08T06:24:41;3.30;;;1.20;;
48241;SDS011;34041;51.812;4.622;2023-01-08T06:27:41;3.73;;;1.70;;
48241;SDS011;34041;51.812;4.622;2023-01-08T06:30:41;3.75;;;1.52;;
48241;SDS011;34041;51.812;4.622;2023-01-08T06:33:41;5.67;;;1.97;;
48241;SDS011;34041;51.812;4.622;2023-01-08T06:36:42;4.30;;;1.70;;
48241;SDS011;34041;51.812;4.622;2023-01-08T06:39:42;4.03;;;1.40;;
48241;SDS011;34041;51.812;4.622;2023-01-08T06:42:42;2.43;;;0.90;;
48241;SDS011;34041;51.812;4.622;2023-01-08T06:45:43;3.92;;;1.65;;
48241;SDS011;34041;51.812;4.622;2023-01-08T06:48:43;2.93;;;1.43;;
48241;SDS011;34041;51.812;4.622;2023-01-08T06:51:44;1.88;;;0.75;;
48241;SDS011;34041;51.812;4.622;2023-01-08T06:54:44;2.47;;;1.10;;
48241;SDS011;34041;51.812;4.622;2023-01-08T06:57:44;5.43;;;1.70;;
48241;SDS011;34041;51.812;4.622;2023-01-08T07:00:44;3.27;;;1.53;;
48241;SDS011;34041;51.812;4.622;2023-01-08T07:03:45;4.13;;;1.17;;
48241;SDS011;34041;51.812;4.622;2023-01-08T07:06:45;3.90;;;1.67;;
48241;SDS011;34041;51.812;4.622;2023-01-08T07:09:45;4.72;;;1.38;;
48241;SDS011;34041;51.812;4.622;2023-01-08T07:12:46;4.13;;;1.58;;
48241;SDS011;34041;51.812;4.622;2023-01-08T07:15:46;3.50;;;1.27;;
48241;SDS011;34041;51.812;4.622;2023-01-08T07:18:46;2.83;;;1.33;;
48241;SDS011;34041;51.812;4.622;2023-01-08T07:21:47;4.73;;;1.30;;
48241;SDS011;34041;51.812;4.622;2023-01-08T07:24:47;3.63;;;1.37;;
48241;SDS011;34041;51.812;4.622;2023-01-08T07:27:48;2.77;;;1.03;;
48241;SDS011;34041;51.812;4.622;2023-01-08T07:30:48;6.25;;;1.50;;
48241;SDS011;34041;51.812;4.622;2023-01-08T07:33:48;4.30;;;2.03;;
48241;SDS011;34041;51.812;4.622;2023-01-08T07:36:49;2.90;;;1.38;;
48241;SDS011;34041;51.812;4.622;2023-01-08T07:39:49;3.20;;;1.30;;
48241;SDS011;34041;51.812;4.622;2023-01-08T07:42:58;3.17;;;0.95;;
48241;SDS011;34041;51.812;4.622;2023-01-08T07:46:00;6.30;;;1.90;;
48241;SDS011;34041;51.812;4.622;2023-01-08T07:49:01;2.78;;;1.23;;
48241;SDS011;34041;51.812;4.622;2023-01-08T07:52:01;3.78;;;1.25;;
48241;SDS011;34041;51.812;4.622;2023-01-08T07:55:01;4.40;;;1.73;;
48241;SDS011;34041;51.812;4.622;2023-01-08T07:58:05;2.57;;;1.30;;
48241;SDS011;34041;51.812;4.622;2023-01-08T08:01:07;3.20;;;0.77;;
48241;SDS011;34041;51.812;4.622;2023-01-08T08:04:07;4.20;;;1.05;;
48241;SDS011;34041;51.812;4.622;2023-01-08T08:07:07;3.57;;;1.30;;
48241;SDS011;34041;51.812;4.622;2023-01-08T08:10:08;3.07;;;1.20;;
48241;SDS011;34041;51.812;4.622;2023-01-08T08:13:08;4.30;;;0.90;;
48241;SDS011;34041;51.812;4.622;2023-01-08T08:16:09;3.80;;;1.52;;
48241;SDS011;34041;51.812;4.622;2023-01-08T08:19:10;6.05;;;1.70;;
48241;SDS011;34041;51.812;4.622;2023-01-08T08:22:11;5.82;;;2.17;;
48241;SDS011;34041;51.812;4.622;2023-01-08T08:25:11;3.33;;;0.95;;
48241;SDS011;34041;51.812;4.622;2023-01-08T08:28:14;4.43;;;1.42;;
48241;SDS011;34041;51.812;4.622;2023-01-08T08:31:14;4.20;;;1.27;;
48241;SDS011;34041;51.812;4.622;2023-01-08T08:34:14;4.30;;;1.35;;
48241;SDS011;34041;51.812;4.622;2023-01-08T08:37:15;4.27;;;1.27;;
48241;SDS011;34041;51.812;4.622;2023-01-08T08:40:15;2.42;;;1.10;;
48241;SDS011;34041;51.812;4.622;2023-01-08T08:43:15;2.38;;;0.95;;
48241;SDS011;34041;51.812;4.622;2023-01-08T08:46:16;3.40;;;1.30;;
48241;SDS011;34041;51.812;4.622;2023-01-08T08:49:16;2.28;;;1.05;;
48241;SDS011;34041;51.812;4.622;2023-01-08T08:52:16;2.23;;;1.03;;
48241;SDS011;34041;51.812;4.622;2023-01-08T08:55:17;4.95;;;1.23;;
48241;SDS011;34041;51.812;4.622;2023-01-08T08:58:17;3.47;;;0.90;;
48241;SDS011;34041;51.812;4.622;2023-01-08T09:01:17;4.63;;;1.52;;
48241;SDS011;34041;51.812;4.622;2023-01-08T09:04:17;2.87;;;1.40;;
48241;SDS011;34041;51.812;4.622;2023-01-08T09:07:17;4.00;;;1.40;;
48241;SDS011;34041;51.812;4.622;2023-01-08T09:10:18;4.50;;;2.03;;
48241;SDS011;34041;51.812;4.622;2023-01-08T09:13:18;4.30;;;1.60;;
48241;SDS011;34041;51.812;4.622;2023-01-08T09:16:18;5.27;;;2.13;;
48241;SDS011;34041;51.812;4.622;2023-01-08T09:19:18;5.50;;;1.80;;
48241;SDS011;34041;51.812;4.622;2023-01-08T09:22:19;3.13;;;1.25;;
48241;SDS011;34041;51.812;4.622;2023-01-08T09:25:19;2.50;;;1.25;;
48241;SDS011;34041;51.812;4.622;2023-01-08T09:28:19;3.90;;;1.10;;
48241;SDS011;34041;51.812;4.622;2023-01-08T09:31:19;3.60;;;1.73;;
48241;SDS011;34041;51.812;4.622;2023-01-08T09:34:20;3.47;;;1.30;;
48241;SDS011;34041;51.812;4.622;2023-01-08T09:37:20;3.47;;;1.67;;
48241;SDS011;34041;51.812;4.622;2023-01-08T09:40:23;4.07;;;1.88;;
48241;SDS011;34041;51.812;4.622;2023-01-08T09:43:25;2.97;;;1.38;;
48241;SDS011;34041;51.812;4.622;2023-01-08T09:46:28;4.13;;;1.17;;
48241;SDS011;34041;51.812;4.622;2023-01-08T09:49:41;3.97;;;1.40;;
48241;SDS011;34041;51.812;4.622;2023-01-08T09:52:43;5.18;;;1.30;;
48241;SDS011;34041;51.812;4.622;2023-01-08T09:55:44;3.43;;;1.27;;
48241;SDS011;34041;51.812;4.622;2023-01-08T09:58:46;4.13;;;1.42;;
48241;SDS011;34041;51.812;4.622;2023-01-08T10:01:49;5.25;;;1.70;;
48241;SDS011;34041;51.812;4.622;2023-01-08T10:04:57;4.22;;;1.55;;
48241;SDS011;34041;51.812;4.622;2023-01-08T10:07:58;4.35;;;1.20;;
48241;SDS011;34041;51.812;4.622;2023-01-08T10:10:58;4.15;;;1.73;;
48241;SDS011;34041;51.812;4.622;2023-01-08T10:13:58;7.50;;;1.85;;
48241;SDS011;34041;51.812;4.622;2023-01-08T10:20:15;4.15;;;1.60;;
48241;SDS011;34041;51.812;4.622;2023-01-08T10:23:16;4.93;;;1.77;;
48241;SDS011;34041;51.812;4.622;2023-01-08T10:26:24;3.45;;;1.40;;
48241;SDS011;34041;51.812;4.622;2023-01-08T10:29:24;3.17;;;1.25;;
48241;SDS011;34041;51.812;4.622;2023-01-08T10:32:27;2.47;;;1.40;;
48241;SDS011;34041;51.812;4.622;2023-01-08T10:35:32;4.13;;;1.63;;
48241;SDS011;34041;51.812;4.622;2023-01-08T10:38:35;5.13;;;1.65;;
48241;SDS011;34041;51.812;4.622;2023-01-08T10:41:36;3.38;;;1.40;;
48241;SDS011;34041;51.812;4.622;2023-01-08T10:44:37;4.30;;;1.35;;
48241;SDS011;34041;51.812;4.622;2023-01-08T10:47:37;3.88;;;1.92;;
48241;SDS011;34041;51.812;4.622;2023-01-08T10:50:38;3.97;;;1.50;;
48241;SDS011;34041;51.812;4.622;2023-01-08T10:53:38;4.40;;;1.50;;
48241;SDS011;34041;51.812;4.622;2023-01-08T10:56:41;4.72;;;1.30;;
48241;SDS011;34041;51.812;4.622;2023-01-08T10:59:41;6.75;;;2.30;;
48241;SDS011;34041;51.812;4.622;2023-01-08T11:02:41;6.40;;;1.60;;
48241;SDS011;34041;51.812;4.622;2023-01-08T11:05:41;6.67;;;2.50;;
48241;SDS011;34041;51.812;4.622;2023-01-08T11:08:48;4.53;;;1.70;;
48241;SDS011;34041;51.812;4.622;2023-01-08T11:11:48;6.32;;;2.20;;
48241;SDS011;34041;51.812;4.622;2023-01-08T11:14:49;7.78;;;2.33;;
48241;SDS011;34041;51.812;4.622;2023-01-08T11:17:49;6.75;;;2.28;;
48241;SDS011;34041;51.812;4.622;2023-01-08T11:20:49;5.38;;;2.10;;
48241;SDS011;34041;51.812;4.622;2023-01-08T11:24:00;5.35;;;2.17;;
48241;SDS011;34041;51.812;4.622;2023-01-08T11:27:06;7.72;;;2.13;;
48241;SDS011;34041;51.812;4.622;2023-01-08T11:30:10;3.75;;;1.85;;
48241;SDS011;34041;51.812;4.622;2023-01-08T11:33:12;5.18;;;1.83;;
48241;SDS011;34041;51.812;4.622;2023-01-08T11:36:20;5.53;;;1.42;;
48241;SDS011;34041;51.812;4.622;2023-01-08T11:39:22;3.38;;;1.70;;
48241;SDS011;34041;51.812;4.622;2023-01-08T11:42:33;7.88;;;2.00;;
48241;SDS011;34041;51.812;4.622;2023-01-08T11:45:44;4.78;;;1.20;;
48241;SDS011;34041;51.812;4.622;2023-01-08T11:52:14;3.95;;;1.60;;
48241;SDS011;34041;51.812;4.622;2023-01-08T11:58:27;6.00;;;1.40;;
48241;SDS011;34041;51.812;4.622;2023-01-08T12:01:33;6.93;;;1.63;;
48241;SDS011;34041;51.812;4.622;2023-01-08T12:08:02;3.78;;;1.15;;
48241;SDS011;34041;51.812;4.622;2023-01-08T12:11:11;3.50;;;1.50;;
48241;SDS011;34041;51.812;4.622;2023-01-08T12:14:35;4.57;;;1.77;;
48241;SDS011;34041;51.812;4.622;2023-01-08T12:21:00;2.67;;;1.35;;
48241;SDS011;34041;51.812;4.622;2023-01-08T12:24:10;4.38;;;1.30;;
48241;SDS011;34041;51.812;4.622;2023-01-08T12:27:27;3.40;;;1.40;;
48241;SDS011;34041;51.812;4.622;2023-01-08T12:33:48;3.40;;;1.48;;
48241;SDS011;34041;51.812;4.622;2023-01-08T12:36:51;2.03;;;0.93;;
48241;SDS011;34041;51.812;4.622;2023-01-08T12:39:57;2.25;;;1.00;;
48241;SDS011;34041;51.812;4.622;2023-01-08T12:43:04;3.97;;;1.02;;
48241;SDS011;34041;51.812;4.622;2023-01-08T12:46:06;3.22;;;1.30;;
48241;SDS011;34041;51.812;4.622;2023-01-08T12:49:10;2.83;;;1.17;;
48241;SDS011;34041;51.812;4.622;2023-01-08T12:52:15;2.25;;;0.95;;
48241;SDS011;34041;51.812;4.622;2023-01-08T12:58:22;3.55;;;1.02;;
48241;SDS011;34041;51.812;4.622;2023-01-08T13:01:26;2.63;;;0.98;;
48241;SDS011;34041;51.812;4.622;2023-01-08T13:07:31;3.78;;;1.25;;
48241;SDS011;34041;51.812;4.622;2023-01-08T13:10:38;3.60;;;1.10;;
48241;SDS011;34041;51.812;4.622;2023-01-08T13:13:40;2.92;;;1.27;;
48241;SDS011;34041;51.812;4.622;2023-01-08T13:16:46;4.55;;;1.42;;
48241;SDS011;34041;51.812;4.622;2023-01-08T13:19:53;2.22;;;1.00;;
48241;SDS011;34041;51.812;4.622;2023-01-08T13:22:55;2.55;;;1.30;;
48241;SDS011;34041;51.812;4.622;2023-01-08T13:25:57;5.65;;;1.63;;
48241;SDS011;34041;51.812;4.622;2023-01-08T13:29:20;2.88;;;1.13;;
48241;SDS011;34041;51.812;4.622;2023-01-08T13:35:33;3.53;;;1.05;;
48241;SDS011;34041;51.812;4.622;2023-01-08T13:38:33;3.97;;;1.33;;
48241;SDS011;34041;51.812;4.622;2023-01-08T13:41:39;6.10;;;1.40;;
48241;SDS011;34041;51.812;4.622;2023-01-08T13:44:41;3.63;;;1.48;;
48241;SDS011;34041;51.812;4.622;2023-01-08T13:47:46;3.78;;;1.17;;
48241;SDS011;34041;51.812;4.622;2023-01-08T13:50:46;3.73;;;1.23;;
48241;SDS011;34041;51.812;4.622;2023-01-08T13:53:46;3.17;;;1.10;;
48241;SDS011;34041;51.812;4.622;2023-01-08T13:56:47;2.50;;;1.00;;
48241;SDS011;34041;51.812;4.622;2023-01-08T14:02:51;4.27;;;1.30;;
48241;SDS011;34041;51.812;4.622;2023-01-08T14:09:18;3.25;;;1.33;;
48241;SDS011;34041;51.812;4.622;2023-01-08T14:12:20;3.47;;;1.58;;
48241;SDS011;34041;51.812;4.622;2023-01-08T14:15:25;3.20;;;1.35;;
48241;SDS011;34041;51.812;4.622;2023-01-08T14:18:26;5.53;;;1.88;;
48241;SDS011;34041;51.812;4.622;2023-01-08T14:21:27;4.50;;;1.23;;
48241;SDS011;34041;51.812;4.622;2023-01-08T14:24:28;4.63;;;1.33;;
48241;SDS011;34041;51.812;4.622;2023-01-08T14:27:28;4.13;;;1.33;;
48241;SDS011;34041;51.812;4.622;2023-01-08T14:30:29;4.80;;;1.45;;
48241;SDS011;34041;51.812;4.622;2023-01-08T14:33:32;3.50;;;1.70;;
48241;SDS011;34041;51.812;4.622;2023-01-08T14:36:33;5.68;;;1.23;;
48241;SDS011;34041;51.812;4.622;2023-01-08T14:39:33;2.45;;;1.10;;
48241;SDS011;34041;51.812;4.622;2023-01-08T14:42:35;4.22;;;1.23;;
48241;SDS011;34041;51.812;4.622;2023-01-08T14:45:56;3.92;;;1.40;;
48241;SDS011;34041;51.812;4.622;2023-01-08T14:48:56;5.00;;;1.53;;
48241;SDS011;34041;51.812;4.622;2023-01-08T14:51:57;4.43;;;1.00;;
48241;SDS011;34041;51.812;4.622;2023-01-08T14:54:59;4.82;;;1.45;;
48241;SDS011;34041;51.812;4.622;2023-01-08T14:57:59;4.38;;;1.50;;
48241;SDS011;34041;51.812;4.622;2023-01-08T15:01:00;5.13;;;1.20;;
48241;SDS011;34041;51.812;4.622;2023-01-08T15:07:17;6.90;;;1.92;;
48241;SDS011;34041;51.812;4.622;2023-01-08T15:13:53;6.40;;;1.40;;
48241;SDS011;34041;51.812;4.622;2023-01-08T15:16:54;6.30;;;1.80;;
48241;SDS011;34041;51.812;4.622;2023-01-08T15:19:56;3.95;;;1.35;;
48241;SDS011;34041;51.812;4.622;2023-01-08T15:22:57;5.60;;;1.15;;
48241;SDS011;34041;51.812;4.622;2023-01-08T15:25:58;3.72;;;1.48;;
48241;SDS011;34041;51.812;4.622;2023-01-08T15:28:59;4.85;;;1.23;;
48241;SDS011;34041;51.812;4.622;2023-01-08T15:32:09;5.07;;;1.23;;
48241;SDS011;34041;51.812;4.622;2023-01-08T15:35:14;4.18;;;1.30;;
48241;SDS011;34041;51.812;4.622;2023-01-08T15:38:15;4.63;;;0.98;;
48241;SDS011;34041;51.812;4.622;2023-01-08T15:41:17;7.40;;;1.60;;
48241;SDS011;34041;51.812;4.622;2023-01-08T15:44:38;6.13;;;1.45;;
48241;SDS011;34041;51.812;4.622;2023-01-08T15:47:38;5.30;;;1.50;;
48241;SDS011;34041;51.812;4.622;2023-01-08T15:50:39;3.07;;;1.20;;
48241;SDS011;34041;51.812;4.622;2023-01-08T15:53:39;4.45;;;1.13;;
48241;SDS011;34041;51.812;4.622;2023-01-08T15:56:40;5.33;;;1.63;;
48241;SDS011;34041;51.812;4.622;2023-01-08T15:59:40;3.90;;;1.45;;
48241;SDS011;34041;51.812;4.622;2023-01-08T16:02:41;2.17;;;1.03;;
48241;SDS011;34041;51.812;4.622;2023-01-08T16:05:41;4.03;;;1.60;;
48241;SDS011;34041;51.812;4.622;2023-01-08T16:08:41;3.40;;;1.20;;
48241;SDS011;34041;51.812;4.622;2023-01-08T16:11:45;7.20;;;1.75;;
48241;SDS011;34041;51.812;4.622;2023-01-08T16:14:45;4.57;;;1.88;;
48241;SDS011;34041;51.812;4.622;2023-01-08T16:17:45;2.63;;;1.20;;
48241;SDS011;34041;51.812;4.622;2023-01-08T16:20:45;4.20;;;1.35;;
48241;SDS011;34041;51.812;4.622;2023-01-08T16:23:45;3.80;;;1.30;;
48241;SDS011;34041;51.812;4.622;2023-01-08T16:26:46;2.83;;;1.00;;
48241;SDS011;34041;51.812;4.622;2023-01-08T16:29:46;6.10;;;2.03;;
48241;SDS011;34041;51.812;4.622;2023-01-08T16:32:49;3.40;;;0.90;;
48241;SDS011;34041;51.812;4.622;2023-01-08T16:36:00;3.53;;;1.30;;
48241;SDS011;34041;51.812;4.622;2023-01-08T16:39:00;4.72;;;1.40;;
48241;SDS011;34041;51.812;4.622;2023-01-08T16:42:00;5.90;;;1.50;;
48241;SDS011;34041;51.812;4.622;2023-01-08T16:45:01;3.00;;;1.30;;
48241;SDS011;34041;51.812;4.622;2023-01-08T16:48:01;3.15;;;1.25;;
48241;SDS011;34041;51.812;4.622;2023-01-08T16:51:05;3.70;;;1.38;;
48241;SDS011;34041;51.812;4.622;2023-01-08T16:54:05;2.55;;;0.90;;
48241;SDS011;34041;51.812;4.622;2023-01-08T16:57:05;4.30;;;1.33;;
48241;SDS011;34041;51.812;4.622;2023-01-08T17:00:06;3.87;;;1.53;;
48241;SDS011;34041;51.812;4.622;2023-01-08T17:03:07;5.38;;;1.60;;
48241;SDS011;34041;51.812;4.622;2023-01-08T17:06:08;4.43;;;1.17;;
48241;SDS011;34041;51.812;4.622;2023-01-08T17:09:09;5.38;;;1.30;;
48241;SDS011;34041;51.812;4.622;2023-01-08T17:12:09;3.83;;;1.37;;
48241;SDS011;34041;51.812;4.622;2023-01-08T17:15:09;4.27;;;1.30;;
48241;SDS011;34041;51.812;4.622;2023-01-08T17:18:10;3.85;;;1.15;;
48241;SDS011;34041;51.812;4.622;2023-01-08T17:21:11;4.60;;;2.00;;
48241;SDS011;34041;51.812;4.622;2023-01-08T17:24:11;4.95;;;1.70;;
48241;SDS011;34041;51.812;4.622;2023-01-08T17:27:12;4.38;;;1.60;;
48241;SDS011;34041;51.812;4.622;2023-01-08T17:30:12;3.10;;;1.03;;
48241;SDS011;34041;51.812;4.622;2023-01-08T17:33:13;5.78;;;1.70;;
48241;SDS011;34041;51.812;4.622;2023-01-08T17:36:17;5.88;;;1.65;;
48241;SDS011;34041;51.812;4.622;2023-01-08T17:39:19;3.53;;;1.73;;
48241;SDS011;34041;51.812;4.622;2023-01-08T17:42:19;3.97;;;1.30;;
48241;SDS011;34041;51.812;4.622;2023-01-08T17:45:26;2.20;;;1.20;;
48241;SDS011;34041;51.812;4.622;2023-01-08T17:48:26;7.20;;;1.88;;
48241;SDS011;34041;51.812;4.622;2023-01-08T17:51:26;5.40;;;1.23;;
48241;SDS011;34041;51.812;4.622;2023-01-08T17:54:27;5.30;;;1.48;;
48241;SDS011;34041;51.812;4.622;2023-01-08T17:57:27;6.07;;;2.10;;
48241;SDS011;34041;51.812;4.622;2023-01-08T18:00:30;4.80;;;1.40;;
48241;SDS011;34041;51.812;4.622;2023-01-08T18:03:30;4.77;;;1.57;;
48241;SDS011;34041;51.812;4.622;2023-01-08T18:06:31;6.17;;;1.47;;
48241;SDS011;34041;51.812;4.622;2023-01-08T18:09:31;5.97;;;2.17;;
48241;SDS011;34041;51.812;4.622;2023-01-08T18:12:31;4.47;;;1.40;;
48241;SDS011;34041;51.812;4.622;2023-01-08T18:15:32;5.73;;;1.70;;
48241;SDS011;34041;51.812;4.622;2023-01-08T18:18:32;6.45;;;1.30;;
48241;SDS011;34041;51.812;4.622;2023-01-08T18:21:33;4.28;;;1.60;;
48241;SDS011;34041;51.812;4.622;2023-01-08T18:24:33;18.87;;;6.70;;
48241;SDS011;34041;51.812;4.622;2023-01-08T18:27:33;49.10;;;18.60;;
48241;SDS011;34041;51.812;4.622;2023-01-08T18:30:34;57.10;;;23.27;;
48241;SDS011;34041;51.812;4.622;2023-01-08T18:33:35;73.50;;;34.33;;
48241;SDS011;34041;51.812;4.622;2023-01-08T18:36:35;75.55;;;37.10;;
48241;SDS011;34041;51.812;4.622;2023-01-08T18:39:35;86.03;;;38.08;;
48241;SDS011;34041;51.812;4.622;2023-01-08T18:42:36;78.77;;;36.23;;
48241;SDS011;34041;51.812;4.622;2023-01-08T18:45:36;66.93;;;33.13;;
48241;SDS011;34041;51.812;4.622;2023-01-08T18:48:40;60.97;;;28.75;;
48241;SDS011;34041;51.812;4.622;2023-01-08T18:51:41;65.15;;;28.63;;
48241;SDS011;34041;51.812;4.622;2023-01-08T18:54:41;76.53;;;30.85;;
48241;SDS011;34041;51.812;4.622;2023-01-08T18:57:41;60.33;;;25.93;;
48241;SDS011;34041;51.812;4.622;2023-01-08T19:00:43;54.00;;;23.48;;
48241;SDS011;34041;51.812;4.622;2023-01-08T19:03:43;47.87;;;22.87;;